Time;durP1;ratioP1;P1;durP2;ratioP2;P2;SDS_P1;SDS_P2;PMS_P1;PMS_P2;Temp;Humidity;BMP_temperature;BMP_pressure;BME280_temperature;BME280_humidity;BME280_pressure;Samples;Min_cycle;Max_cycle;Signal;HPM_P1;HPM_P2
2023/04/19 00:03:44;;;;;;;;;;;;;;;19.14;49.55;96064.41;10479656;28;2577;-63
2023/04/19 00:08:44;;;;;;;;;;;;;;;19.11;49.63;96059.66;10453952;28;2724;-63
2023/04/19 00:13:45;;;;;;;;;;;;;;;19.11;49.09;96055.22;10486199;28;2635;-63
2023/04/19 00:18:45;;;;;;;;;;;;;;;19.08;48.93;96054.94;10473878;28;2706;-63
2023/04/19 00:23:46;;;;;;;;;;;;;;;19.09;48.50;96051.25;10471692;28;2545;-63
2023/04/19 00:28:46;;;;;;;;;;;;;;;19.07;48.71;96045.47;10470819;28;2569;-63
2023/04/19 00:33:47;;;;;;;;;;;;;;;19.06;48.59;96041.25;10475382;28;2608;-63
2023/04/19 00:38:48;;;;;;;;;;;;;;;19.05;48.55;96043.09;10463836;28;2551;-63
2023/04/19 00:43:48;;;;;;;;;;;;;;;19.04;48.74;96044.13;10477202;28;2552;-63
2023/04/19 00:48:49;;;;;;;;;;;;;;;19.02;48.14;96037.56;10473174;28;2749;-63
2023/04/19 00:53:49;;;;;;;;;;;;;;;19.01;48.14;96031.53;10478232;28;2696;-63
2023/04/19 00:58:51;;;;;;;;;;;;;;;19.02;47.80;96040.19;10467672;28;2637;-63
2023/04/19 01:03:52;;;;;;;;;;;;;;;18.98;47.73;96029.41;10483118;28;2577;-63
2023/04/19 01:08:55;;;;;;;;;;;;;;;18.99;47.56;96025.72;10478365;28;2593;-63
2023/04/19 01:13:57;;;;;;;;;;;;;;;18.97;47.41;96024.41;10457411;28;1967;-63
2023/04/19 01:18:58;;;;;;;;;;;;;;;18.98;47.49;96015.50;10462228;28;2613;-63
2023/04/19 01:23:58;;;;;;;;;;;;;;;18.95;47.20;96019.41;10467763;28;2486;-63
2023/04/19 01:28:58;;;;;;;;;;;;;;;18.93;47.48;96004.94;10481012;28;2617;-63
2023/04/19 01:33:59;;;;;;;;;;;;;;;18.93;47.37;96003.13;10477608;28;1975;-63
2023/04/19 01:39:00;;;;;;;;;;;;;;;18.92;46.71;95995.50;10496407;28;1964;-65
2023/04/19 01:44:00;;;;;;;;;;;;;;;18.91;47.09;96005.22;10495967;28;2328;-63
2023/04/19 01:49:00;;;;;;;;;;;;;;;18.91;47.06;95996.53;10475714;28;2051;-66
2023/04/19 01:54:02;;;;;;;;;;;;;;;18.91;46.60;95993.91;10475229;28;1939;-63
2023/04/19 01:59:03;;;;;;;;;;;;;;;18.90;46.75;95992.34;10475433;28;2040;-63
2023/04/19 02:04:03;;;;;;;;;;;;;;;18.86;46.86;95984.16;10476736;28;1941;-63
2023/04/19 02:09:03;;;;;;;;;;;;;;;18.87;46.67;95985.75;10477063;28;1952;-63
2023/04/19 02:14:04;;;;;;;;;;;;;;;18.85;46.32;95974.72;10489244;28;1961;-63
2023/04/19 02:19:05;;;;;;;;;;;;;;;18.86;46.31;95976.28;10467447;28;2065;-63
2023/04/19 02:24:06;;;;;;;;;;;;;;;18.83;47.08;95968.13;10472752;28;2042;-63
2023/04/19 02:29:06;;;;;;;;;;;;;;;18.82;46.66;95964.72;10462704;28;2111;-63
2023/04/19 02:34:07;;;;;;;;;;;;;;;18.81;46.08;95959.72;10474336;28;1969;-63
2023/04/19 02:39:08;;;;;;;;;;;;;;;18.83;46.44;95957.63;10477182;28;2078;-63
2023/04/19 02:44:16;;;;;;;;;;;;;;;18.80;46.46;95953.69;10469362;28;2032;-63
2023/04/19 02:49:17;;;;;;;;;;;;;;;18.80;46.17;95945.78;10475771;28;1986;-63
2023/04/19 02:54:18;;;;;;;;;;;;;;;18.79;45.94;95946.06;10476976;28;1993;-63
2023/04/19 02:59:18;;;;;;;;;;;;;;;18.78;46.51;95940.00;10470496;28;2030;-63
2023/04/19 03:04:18;;;;;;;;;;;;;;;18.78;45.93;95940.00;10475307;28;2005;-63
2023/04/19 03:09:29;;;;;;;;;;;;;;;18.76;46.18;95939.47;10479192;28;2010;-63
2023/04/19 03:14:32;;;;;;;;;;;;;;;18.75;46.97;95935.28;10471001;28;2021;-63
2023/04/19 03:19:32;;;;;;;;;;;;;;;18.75;46.24;95926.63;10466357;28;2011;-63
2023/04/19 03:24:33;;;;;;;;;;;;;;;18.74;45.95;95931.06;10482087;28;1952;-62
2023/04/19 03:29:33;;;;;;;;;;;;;;;18.73;46.16;95921.63;10477955;28;2091;-63
2023/04/19 03:34:33;;;;;;;;;;;;;;;18.73;45.96;95912.94;10469023;28;1983;-63
2023/04/19 03:39:34;;;;;;;;;;;;;;;18.72;46.70;95912.16;10479105;28;2028;-62
2023/04/19 03:44:34;;;;;;;;;;;;;;;18.71;45.95;95907.97;10476621;28;2021;-63
2023/04/19 03:49:34;;;;;;;;;;;;;;;18.70;46.34;95903.75;10472479;28;2050;-62
2023/04/19 03:54:34;;;;;;;;;;;;;;;18.67;47.00;95899.00;10464513;28;2031;-63
2023/04/19 03:59:35;;;;;;;;;;;;;;;18.68;46.61;95904.00;10466702;28;1955;-63
2023/04/19 04:04:35;;;;;;;;;;;;;;;18.67;45.98;95905.03;10467585;28;2135;-62
2023/04/19 04:09:35;;;;;;;;;;;;;;;18.67;47.11;95904.25;10456242;28;1943;-62
2023/04/19 04:14:36;;;;;;;;;;;;;;;18.70;47.11;95906.38;10453264;28;2208;-63
2023/04/19 04:19:36;;;;;;;;;;;;;;;18.74;46.56;95912.69;10471614;28;2029;-62
2023/04/19 04:24:40;;;;;;;;;;;;;;;18.82;46.54;95901.69;10467343;28;1968;-63
2023/04/19 04:29:42;;;;;;;;;;;;;;;18.89;46.62;95910.13;10477326;28;1920;-59
2023/04/19 04:34:43;;;;;;;;;;;;;;;18.98;46.53;95903.28;10462939;28;1999;-59
2023/04/19 04:39:43;;;;;;;;;;;;;;;19.07;46.39;95914.09;10462488;28;2031;-63
2023/04/19 04:44:46;;;;;;;;;;;;;;;19.11;46.25;95908.06;10474288;28;1923;-62
2023/04/19 04:49:46;;;;;;;;;;;;;;;19.20;46.23;95909.13;10492726;28;2078;-63
2023/04/19 04:54:49;;;;;;;;;;;;;;;19.27;45.95;95914.13;10481994;28;2162;-62
2023/04/19 04:59:49;;;;;;;;;;;;;;;19.30;45.95;95901.25;10483893;28;1936;-63
2023/04/19 05:04:49;;;;;;;;;;;;;;;19.33;45.61;95903.38;10460677;28;2055;-63
2023/04/19 05:09:50;;;;;;;;;;;;;;;19.37;45.66;95896.56;10459518;28;2066;-62
2023/04/19 05:14:50;;;;;;;;;;;;;;;19.43;44.98;95900.75;10475595;28;2001;-63
2023/04/19 05:19:51;;;;;;;;;;;;;;;19.47;45.26;95891.31;10485738;28;1892;-63
2023/04/19 05:24:52;;;;;;;;;;;;;;;19.49;45.00;95891.81;10475086;28;1912;-62
2023/04/19 05:29:53;;;;;;;;;;;;;;;19.55;45.00;95894.47;10478646;28;1968;-62
2023/04/19 05:34:53;;;;;;;;;;;;;;;19.58;44.97;95896.59;10479479;28;1995;-62
2023/04/19 05:39:54;;;;;;;;;;;;;;;19.61;45.16;95896.03;10471996;28;1913;-62
2023/04/19 05:44:54;;;;;;;;;;;;;;;19.61;44.91;95899.47;10467275;28;2059;-63
2023/04/19 05:49:54;;;;;;;;;;;;;;;19.66;44.82;95896.06;10469465;28;1967;-63
2023/04/19 05:54:55;;;;;;;;;;;;;;;19.68;44.82;95894.72;10470293;28;1991;-62
2023/04/19 05:59:56;;;;;;;;;;;;;;;19.71;44.64;95894.19;10490675;28;1940;-62
2023/04/19 06:04:57;;;;;;;;;;;;;;;19.76;44.61;95890.78;10451269;28;1944;-63
2023/04/19 06:09:57;;;;;;;;;;;;;;;19.77;44.46;95892.34;10478784;28;1999;-62
2023/04/19 06:14:58;;;;;;;;;;;;;;;19.80;44.52;95908.41;10477559;28;1971;-62
2023/04/19 06:19:59;;;;;;;;;;;;;;;19.83;44.69;95892.09;10469113;28;2190;-63
2023/04/19 06:25:00;;;;;;;;;;;;;;;19.85;44.71;95899.69;10487916;28;1924;-63
2023/04/19 06:30:01;;;;;;;;;;;;;;;19.91;44.32;95888.13;10477228;28;2191;-63
2023/04/19 06:35:02;;;;;;;;;;;;;;;19.91;44.14;95896.00;10466645;28;2026;-63
2023/04/19 06:40:04;;;;;;;;;;;;;;;19.93;44.15;95886.00;10469953;28;2031;-63
2023/04/19 06:45:05;;;;;;;;;;;;;;;19.93;43.87;95888.63;10469032;28;2083;-62
2023/04/19 06:50:06;;;;;;;;;;;;;;;19.96;43.90;95882.84;10467818;28;1939;-63
2023/04/19 06:55:07;;;;;;;;;;;;;;;19.97;43.57;95877.31;10484624;28;1963;-63
2023/04/19 07:00:08;;;;;;;;;;;;;;;19.99;43.63;95879.72;10484488;28;1940;-63
2023/04/19 07:05:09;;;;;;;;;;;;;;;20.00;43.57;95882.06;10451244;28;2031;-63
2023/04/19 07:10:10;;;;;;;;;;;;;;;20.01;43.21;95882.88;10477272;28;1948;-63
2023/04/19 07:15:11;;;;;;;;;;;;;;;20.02;43.39;95879.97;10469943;28;1941;-62
2023/04/19 07:20:13;;;;;;;;;;;;;;;20.02;43.15;95874.69;10470147;28;2053;-63
2023/04/19 07:25:14;;;;;;;;;;;;;;;20.03;43.11;95870.22;10471855;28;1928;-63
2023/04/19 07:30:14;;;;;;;;;;;;;;;20.01;43.22;95872.34;10469331;28;1922;-63
2023/04/19 07:35:23;;;;;;;;;;;;;;;20.00;43.15;95862.84;10470250;28;1999;-63
2023/04/19 07:40:23;;;;;;;;;;;;;;;19.98;43.25;95862.34;10467203;28;1932;-63
2023/04/19 07:45:24;;;;;;;;;;;;;;;19.95;43.31;95857.59;10469639;28;1945;-62
2023/04/19 07:50:25;;;;;;;;;;;;;;;19.93;43.29;95855.22;10482952;28;1945;-62
2023/04/19 07:55:26;;;;;;;;;;;;;;;19.89;43.42;95848.13;10437870;28;1988;-63
2023/04/19 08:00:28;;;;;;;;;;;;;;;19.88;43.19;95850.00;10464147;28;1940;-62
2023/04/19 08:05:29;;;;;;;;;;;;;;;19.89;42.86;95848.94;10460572;28;2016;-63
2023/04/19 08:10:29;;;;;;;;;;;;;;;19.84;43.36;95845.53;10470771;28;1890;-63
2023/04/19 08:15:32;;;;;;;;;;;;;;;19.81;43.21;95846.03;10468214;28;2031;-62
2023/04/19 08:20:33;;;;;;;;;;;;;;;19.81;43.12;95851.31;10465000;28;2236;-63
2023/04/19 08:25:33;;;;;;;;;;;;;;;19.77;43.05;95843.16;10464985;28;1957;-63
2023/04/19 08:30:34;;;;;;;;;;;;;;;19.73;43.69;95838.69;10475050;28;2115;-62
2023/04/19 08:35:39;;;;;;;;;;;;;;;19.71;43.27;95831.09;10474695;28;1957;-62
2023/04/19 08:40:46;;;;;;;;;;;;;;;19.67;43.76;95837.13;10475552;28;1944;-62
2023/04/19 08:45:48;;;;;;;;;;;;;;;19.64;43.70;95833.19;10443656;28;2027;-62
2023/04/19 08:50:48;;;;;;;;;;;;;;;19.62;43.88;95831.91;10459082;28;1940;-63
2023/04/19 08:55:49;;;;;;;;;;;;;;;19.61;43.81;95825.84;10468225;28;2031;-62
2023/04/19 09:00:49;;;;;;;;;;;;;;;19.60;43.75;95815.59;10487463;28;1943;-62
2023/04/19 09:05:49;;;;;;;;;;;;;;;19.58;43.90;95815.06;10472740;28;1940;-62
2023/04/19 09:10:53;;;;;;;;;;;;;;;19.54;43.95;95814.03;10491492;28;2131;-64
2023/04/19 09:15:59;;;;;;;;;;;;;;;19.51;44.25;95806.66;10461604;28;1975;-63
2023/04/19 09:20:59;;;;;;;;;;;;;;;19.48;44.20;95806.13;10471677;28;2014;-63
2023/04/19 09:26:03;;;;;;;;;;;;;;;19.47;44.48;95796.66;10464422;28;1980;-62
2023/04/19 09:31:14;;;;;;;;;;;;;;;19.47;44.31;95795.88;10503429;28;2095;-63
2023/04/19 09:36:26;;;;;;;;;;;;;;;19.45;44.46;95783.00;10472854;28;2001;-62
2023/04/19 09:41:26;;;;;;;;;;;;;;;19.43;44.45;95779.84;10469819;28;1952;-62
2023/04/19 09:46:34;;;;;;;;;;;;;;;19.43;44.47;95777.22;10458417;28;2075;-63
2023/04/19 09:51:41;;;;;;;;;;;;;;;19.38;44.45;95769.34;10475252;28;1940;-62
2023/04/19 09:56:42;;;;;;;;;;;;;;;19.38;44.64;95763.28;10463109;28;2313;-63
2023/04/19 10:01:47;;;;;;;;;;;;;;;19.37;44.53;95757.25;10473043;28;1975;-62
2023/04/19 10:06:48;;;;;;;;;;;;;;;19.33;44.27;95748.31;10470351;28;2018;-62
2023/04/19 10:11:50;;;;;;;;;;;;;;;19.32;44.46;95738.84;10465125;28;2019;-62
2023/04/19 10:16:50;;;;;;;;;;;;;;;19.32;44.32;95749.34;10461599;28;1926;-63
2023/04/19 10:21:51;;;;;;;;;;;;;;;19.31;44.51;95737.25;10459433;28;1964;-63
2023/04/19 10:27:12;;;;;;;;;;;;;;;19.28;44.48;95732.53;10461699;28;1988;-62
2023/04/19 10:32:13;;;;;;;;;;;;;;;19.28;44.39;95729.13;10467661;28;1941;-62
2023/04/19 10:37:14;;;;;;;;;;;;;;;19.26;44.65;95726.75;10455917;28;2129;-62
2023/04/19 10:42:14;;;;;;;;;;;;;;;19.25;44.56;95717.28;10466953;28;1982;-62
2023/04/19 10:47:35;;;;;;;;;;;;;;;19.25;44.62;95714.66;10471911;28;1933;-62
2023/04/19 10:52:36;;;;;;;;;;;;;;;19.23;44.68;95713.34;10473392;28;2454;-62
2023/04/19 10:57:55;;;;;;;;;;;;;;;19.20;44.62;95704.16;10461856;28;1908;-63
2023/04/19 11:02:57;;;;;;;;;;;;;;;19.22;44.69;95701.28;10470371;28;1979;-63
2023/04/19 11:07:57;;;;;;;;;;;;;;;19.20;44.64;95685.78;10472337;28;1886;-62
2023/04/19 11:12:58;;;;;;;;;;;;;;;19.18;44.49;95687.88;10460138;28;2004;-61
2023/04/19 11:18:00;;;;;;;;;;;;;;;19.18;44.52;95684.47;10457276;28;1948;-61
2023/04/19 11:23:01;;;;;;;;;;;;;;;19.17;44.62;95682.88;10460230;28;2008;-63
2023/04/19 11:28:02;;;;;;;;;;;;;;;19.16;44.51;95670.81;10474270;28;1978;-63
2023/04/19 11:33:03;;;;;;;;;;;;;;;19.14;44.66;95668.44;10468108;28;2063;-63
2023/04/19 11:38:05;;;;;;;;;;;;;;;19.13;44.62;95672.13;10485120;28;2020;-63
2023/04/19 11:43:05;;;;;;;;;;;;;;;19.12;44.72;95669.75;10470566;28;1901;-63
2023/04/19 11:48:15;;;;;;;;;;;;;;;19.11;44.73;95676.84;10497114;28;2081;-63
2023/04/19 11:53:22;;;;;;;;;;;;;;;19.10;44.73;95677.88;10468614;28;1973;-63
2023/04/19 11:58:24;;;;;;;;;;;;;;;19.09;44.76;95671.06;10469003;28;1976;-63
2023/04/19 12:03:25;;;;;;;;;;;;;;;19.08;44.59;95668.72;10466313;28;1936;-63
2023/04/19 12:08:30;;;;;;;;;;;;;;;19.06;44.59;95666.34;10474766;28;1946;-63
2023/04/19 12:13:31;;;;;;;;;;;;;;;19.05;44.48;95659.53;10480487;28;2017;-63
2023/04/19 12:18:50;;;;;;;;;;;;;;;19.04;44.46;95659.78;10454347;28;2115;-63
2023/04/19 12:23:52;;;;;;;;;;;;;;;19.03;44.40;95653.75;10460527;28;1957;-63
2023/04/19 12:28:53;;;;;;;;;;;;;;;19.03;44.35;95647.69;10468466;28;2228;-63
2023/04/19 12:33:53;;;;;;;;;;;;;;;19.00;44.37;95649.00;10461566;28;1979;-63
2023/04/19 12:38:53;;;;;;;;;;;;;;;19.00;44.42;95649.00;10461293;28;2001;-62
2023/04/19 12:43:54;;;;;;;;;;;;;;;18.98;44.46;95656.38;10463836;28;2027;-63
2023/04/19 12:48:56;;;;;;;;;;;;;;;18.97;44.53;95651.38;10464345;28;1955;-63
2023/04/19 12:53:57;;;;;;;;;;;;;;;18.96;44.40;95645.34;10456450;28;1957;-62
2023/04/19 12:59:02;;;;;;;;;;;;;;;18.95;44.29;95637.72;10459201;28;2299;-63
2023/04/19 13:04:02;;;;;;;;;;;;;;;18.94;44.30;95636.94;10470974;28;1944;-63
2023/04/19 13:09:03;;;;;;;;;;;;;;;18.94;44.36;95636.94;10484206;28;1931;-62
2023/04/19 13:14:03;;;;;;;;;;;;;;;18.92;44.17;95639.03;10472380;28;2074;-63
2023/04/19 13:19:13;;;;;;;;;;;;;;;18.91;44.17;95634.84;10468072;28;1998;-63
2023/04/19 13:24:14;;;;;;;;;;;;;;;18.90;44.15;95633.28;10472685;28;1966;-63
2023/04/19 13:29:15;;;;;;;;;;;;;;;18.90;44.06;95628.03;10467254;28;1947;-63
2023/04/19 13:34:16;;;;;;;;;;;;;;;18.89;44.06;95629.09;10472951;28;1985;-62
2023/04/19 13:39:16;;;;;;;;;;;;;;;18.88;44.13;95624.06;10473485;28;1932;-63
2023/04/19 13:44:17;;;;;;;;;;;;;;;18.92;44.11;95619.91;10471992;28;1942;-63
2023/04/19 13:49:17;;;;;;;;;;;;;;;18.95;43.86;95617.50;10471606;28;1892;-63
2023/04/19 13:54:19;;;;;;;;;;;;;;;19.00;43.96;95617.50;10488271;28;1975;-63
2023/04/19 13:59:20;;;;;;;;;;;;;;;19.08;43.78;95613.56;10490616;28;1980;-63
2023/04/19 14:04:22;;;;;;;;;;;;;;;19.14;43.69;95620.38;10472547;28;1885;-65
2023/04/19 14:09:23;;;;;;;;;;;;;;;19.25;43.53;95632.41;10446967;28;1963;-63
2023/04/19 14:14:23;;;;;;;;;;;;;;;19.31;43.25;95633.94;10460594;28;2043;-63
2023/04/19 14:19:24;;;;;;;;;;;;;;;19.38;43.28;95634.50;10472100;28;2096;-63
2023/04/19 14:24:25;;;;;;;;;;;;;;;19.44;42.89;95636.84;10472289;28;1990;-61
2023/04/19 14:29:25;;;;;;;;;;;;;;;19.46;42.89;95640.00;10482707;28;1943;-63
2023/04/19 14:34:26;;;;;;;;;;;;;;;19.53;42.64;95636.28;10481498;28;2005;-63
2023/04/19 14:39:27;;;;;;;;;;;;;;;19.56;42.58;95651.53;10482634;28;1948;-63
2023/04/19 14:44:27;;;;;;;;;;;;;;;19.60;42.36;95648.06;10475907;28;1910;-63
2023/04/19 14:49:37;;;;;;;;;;;;;;;19.64;42.19;95654.38;10476143;28;1893;-64
2023/04/19 14:54:47;;;;;;;;;;;;;;;19.67;42.07;95653.06;10475917;28;1933;-63
2023/04/19 14:59:48;;;;;;;;;;;;;;;19.69;41.89;95654.38;10478773;28;1989;-63
2023/04/19 15:04:49;;;;;;;;;;;;;;;19.73;42.01;95657.22;10467640;28;2010;-63
2023/04/19 15:09:49;;;;;;;;;;;;;;;19.77;42.05;95660.91;10502613;28;1982;-66
2023/04/19 15:14:50;;;;;;;;;;;;;;;19.80;41.96;95661.16;10473398;28;2015;-65
2023/04/19 15:19:51;;;;;;;;;;;;;;;19.82;41.96;95660.88;10468078;28;1955;-63
2023/04/19 15:24:51;;;;;;;;;;;;;;;19.84;41.61;95669.28;10491853;28;1972;-63
2023/04/19 15:29:52;;;;;;;;;;;;;;;19.84;41.72;95669.28;10480512;28;2103;-63
2023/04/19 15:35:00;;;;;;;;;;;;;;;19.88;41.54;95670.31;10487157;28;1913;-63
2023/04/19 15:40:13;;;;;;;;;;;;;;;19.90;41.44;95673.47;10470199;28;1907;-64
2023/04/19 15:45:23;;;;;;;;;;;;;;;19.94;41.48;95679.75;10461574;28;1992;-60
2023/04/19 15:50:23;;;;;;;;;;;;;;;19.95;41.15;95678.69;10492071;28;1886;-60
2023/04/19 15:55:25;;;;;;;;;;;;;;;19.96;41.26;95680.28;10506298;28;2036;-61
2023/04/19 16:00:25;;;;;;;;;;;;;;;19.99;41.26;95671.84;10478886;28;1956;-60
2023/04/19 16:05:26;;;;;;;;;;;;;;;20.00;41.12;95689.19;10465838;28;1952;-60
2023/04/19 16:10:27;;;;;;;;;;;;;;;20.00;41.18;95681.31;10479199;28;2082;-60
2023/04/19 16:15:28;;;;;;;;;;;;;;;20.01;40.89;95688.91;10468995;28;1976;-60
2023/04/19 16:20:28;;;;;;;;;;;;;;;20.03;40.83;95691.31;10465604;28;2029;-60
2023/04/19 16:25:31;;;;;;;;;;;;;;;20.07;41.15;95697.59;10468168;28;1944;-63
2023/04/19 16:30:32;;;;;;;;;;;;;;;20.11;41.55;95698.63;10491387;28;2029;-64
2023/04/19 16:35:32;;;;;;;;;;;;;;;20.14;41.45;95711.22;10482009;28;1958;-63
2023/04/19 16:40:33;;;;;;;;;;;;;;;20.15;42.15;95715.44;10472730;28;1925;-63
2023/04/19 16:45:33;;;;;;;;;;;;;;;20.20;41.81;95707.53;10474963;28;1969;-64
2023/04/19 16:50:33;;;;;;;;;;;;;;;20.23;41.83;95697.28;10492113;28;1909;-63
2023/04/19 16:55:34;;;;;;;;;;;;;;;20.24;41.80;95695.41;10488941;28;2399;-63
2023/04/19 17:00:35;;;;;;;;;;;;;;;20.26;41.88;95698.56;10476821;28;1885;-63
2023/04/19 17:05:35;;;;;;;;;;;;;;;20.27;42.06;95684.34;10467055;28;2057;-63
2023/04/19 17:10:35;;;;;;;;;;;;;;;20.27;41.46;95677.25;10483078;28;1957;-63
2023/04/19 17:15:40;;;;;;;;;;;;;;;20.31;41.23;95669.56;10497051;28;1960;-63
2023/04/19 17:20:41;;;;;;;;;;;;;;;20.27;42.00;95655.38;10484858;28;1970;-63
2023/04/19 17:25:51;;;;;;;;;;;;;;;20.29;41.28;95655.91;10502094;28;2105;-63
2023/04/19 17:30:52;;;;;;;;;;;;;;;20.30;41.49;95646.94;10473650;28;1967;-61
2023/04/19 17:35:53;;;;;;;;;;;;;;;20.28;42.24;95641.94;10477480;28;2044;-63
2023/04/19 17:40:54;;;;;;;;;;;;;;;20.33;42.29;95640.34;10493601;28;1959;-64
2023/04/19 17:45:56;;;;;;;;;;;;;;;20.34;41.68;95647.97;10485062;28;1964;-64
2023/04/19 17:50:57;;;;;;;;;;;;;;;20.33;42.34;95651.66;10485169;28;2012;-67
2023/04/19 17:55:57;;;;;;;;;;;;;;;20.33;42.16;95643.75;10469102;28;1971;-66
2023/04/19 18:00:59;;;;;;;;;;;;;;;20.35;42.90;95652.19;10484511;28;1984;-65
2023/04/19 18:05:59;;;;;;;;;;;;;;;20.35;42.36;95646.91;10470809;28;2106;-65
2023/04/19 18:11:00;;;;;;;;;;;;;;;20.36;42.31;95653.72;10464113;28;2000;-66
2023/04/19 18:16:02;;;;;;;;;;;;;;;20.35;41.92;95654.00;10469213;28;1902;-66
2023/04/19 18:21:04;;;;;;;;;;;;;;;20.34;41.47;95647.97;10475105;28;2292;-67
2023/04/19 18:26:05;;;;;;;;;;;;;;;20.33;41.80;95654.28;10478023;28;1943;-67
2023/04/19 18:31:06;;;;;;;;;;;;;;;20.31;41.40;95645.88;10468963;28;2357;-67
2023/04/19 18:36:07;;;;;;;;;;;;;;;20.28;42.18;95664.84;10447213;28;2056;-67
2023/04/19 18:41:08;;;;;;;;;;;;;;;20.25;42.03;95665.41;10464412;28;2126;-67
2023/04/19 18:46:08;;;;;;;;;;;;;;;20.24;42.17;95679.63;10462838;28;2146;-67
2023/04/19 18:51:09;;;;;;;;;;;;;;;20.22;41.87;95689.63;10456681;28;1971;-67
2023/04/19 18:56:09;;;;;;;;;;;;;;;20.19;41.92;95695.41;10477312;28;1985;-67
2023/04/19 19:01:10;;;;;;;;;;;;;;;20.19;41.83;95692.78;10480151;28;1937;-67
2023/04/19 19:06:11;;;;;;;;;;;;;;;20.14;42.33;95695.44;10491860;28;1988;-66
2023/04/19 19:11:12;;;;;;;;;;;;;;;20.14;42.25;95695.44;10465335;28;2020;-63
2023/04/19 19:16:13;;;;;;;;;;;;;;;20.13;41.83;95696.50;10473503;28;2277;-63
2023/04/19 19:21:13;;;;;;;;;;;;;;;20.10;41.76;95700.47;10472842;28;2065;-63
2023/04/19 19:26:15;;;;;;;;;;;;;;;20.12;41.19;95706.25;10472915;28;1921;-63
2023/04/19 19:31:15;;;;;;;;;;;;;;;20.10;41.43;95699.66;10465367;28;1951;-63
2023/04/19 19:36:25;;;;;;;;;;;;;;;20.08;41.36;95707.84;10476663;28;1983;-63
2023/04/19 19:41:25;;;;;;;;;;;;;;;20.08;41.21;95709.69;10473834;28;2065;-65
2023/04/19 19:46:26;;;;;;;;;;;;;;;20.04;41.28;95714.69;10475893;28;2036;-68
2023/04/19 19:51:27;;;;;;;;;;;;;;;20.03;41.41;95701.81;10487693;28;2057;-68
2023/04/19 19:56:27;;;;;;;;;;;;;;;20.01;41.37;95696.81;10481842;28;2058;-68
2023/04/19 20:01:27;;;;;;;;;;;;;;;20.00;41.25;95694.47;10479944;28;2001;-68
2023/04/19 20:06:30;;;;;;;;;;;;;;;19.96;40.99;95685.53;10452772;28;1940;-68
2023/04/19 20:11:31;;;;;;;;;;;;;;;19.93;41.81;95691.31;10444986;28;1986;-68
2023/04/19 20:16:32;;;;;;;;;;;;;;;19.93;41.79;95680.81;10468345;28;2286;-68
2023/04/19 20:21:32;;;;;;;;;;;;;;;19.89;42.21;95677.13;10472015;28;2218;-68
2023/04/19 20:26:34;;;;;;;;;;;;;;;19.86;42.18;95685.59;10467052;28;2009;-68
2023/04/19 20:31:34;;;;;;;;;;;;;;;19.87;42.28;95693.19;10465481;28;2079;-68
2023/04/19 20:36:35;;;;;;;;;;;;;;;19.82;42.12;95692.44;10460686;28;1973;-68
2023/04/19 20:41:36;;;;;;;;;;;;;;;19.81;41.99;95682.97;10451271;28;1933;-67
2023/04/19 20:46:36;;;;;;;;;;;;;;;19.78;42.42;95683.53;10470205;28;1979;-67
2023/04/19 20:51:36;;;;;;;;;;;;;;;19.73;42.28;95673.00;10467178;28;1959;-67
2023/04/19 20:56:37;;;;;;;;;;;;;;;19.72;42.09;95674.09;10469259;28;2040;-67
2023/04/19 21:01:38;;;;;;;;;;;;;;;19.69;42.04;95669.34;10462692;28;1963;-67
2023/04/19 21:06:38;;;;;;;;;;;;;;;19.67;41.95;95671.47;10453154;28;2059;-67
2023/04/19 21:11:38;;;;;;;;;;;;;;;19.62;41.93;95674.88;10456948;28;2051;-67
2023/04/19 21:16:39;;;;;;;;;;;;;;;19.61;42.13;95651.50;10479361;28;2059;-67
2023/04/19 21:21:40;;;;;;;;;;;;;;;19.58;42.13;95646.78;10475226;28;2005;-67
2023/04/19 21:26:40;;;;;;;;;;;;;;;19.56;41.86;95646.28;10460595;28;2029;-66
2023/04/19 21:31:41;;;;;;;;;;;;;;;19.54;41.96;95640.50;10479321;28;2171;-66
2023/04/19 21:36:41;;;;;;;;;;;;;;;19.53;42.09;95633.66;10472984;28;1972;-65
2023/04/19 21:41:41;;;;;;;;;;;;;;;19.51;41.92;95627.88;10467928;28;1960;-65
2023/04/19 21:46:42;;;;;;;;;;;;;;;19.47;42.00;95620.53;10479216;28;1953;-65
2023/04/19 21:51:42;;;;;;;;;;;;;;;19.45;42.00;95622.63;10466471;28;1971;-66
2023/04/19 21:56:43;;;;;;;;;;;;;;;19.44;41.84;95615.81;10479527;28;2062;-66
2023/04/19 22:01:45;;;;;;;;;;;;;;;19.43;41.80;95619.50;10481268;28;2090;-65
2023/04/19 22:06:46;;;;;;;;;;;;;;;19.40;41.98;95625.28;10478553;28;1976;-65
2023/04/19 22:11:46;;;;;;;;;;;;;;;19.39;41.98;95615.06;10468710;28;1968;-65
2023/04/19 22:16:48;;;;;;;;;;;;;;;19.35;42.20;95612.16;10469570;28;2068;-65
2023/04/19 22:21:48;;;;;;;;;;;;;;;19.36;42.07;95610.31;10471879;28;1905;-66
2023/04/19 22:26:49;;;;;;;;;;;;;;;19.35;41.94;95608.78;10485166;28;1977;-66
2023/04/19 22:31:51;;;;;;;;;;;;;;;19.33;41.93;95595.06;10462850;28;1963;-65
2023/04/19 22:36:52;;;;;;;;;;;;;;;19.32;41.93;95588.22;10470306;28;1977;-67
2023/04/19 22:41:52;;;;;;;;;;;;;;;19.31;41.70;95591.91;10463495;28;2031;-65
2023/04/19 22:46:53;;;;;;;;;;;;;;;19.30;41.87;95595.59;10462737;28;1956;-65
2023/04/19 22:51:55;;;;;;;;;;;;;;;19.27;41.87;95594.28;10475787;28;1956;-65
2023/04/19 22:56:55;;;;;;;;;;;;;;;19.24;41.72;95600.09;10482335;28;1968;-65
2023/04/19 23:01:55;;;;;;;;;;;;;;;19.24;41.76;95594.06;10460016;28;2035;-65
2023/04/19 23:07:06;;;;;;;;;;;;;;;19.23;41.83;95581.94;10464084;28;1980;-65
2023/04/19 23:12:07;;;;;;;;;;;;;;;19.23;41.85;95582.75;10458498;28;2053;-67
2023/04/19 23:17:09;;;;;;;;;;;;;;;19.20;41.62;95572.00;10468646;28;2100;-68
2023/04/19 23:22:09;;;;;;;;;;;;;;;19.19;41.84;95558.06;10466848;28;1929;-65
2023/04/19 23:27:10;;;;;;;;;;;;;;;19.17;41.73;95562.78;10485076;28;2024;-65
2023/04/19 23:32:10;;;;;;;;;;;;;;;19.17;41.76;95562.78;10479984;28;1963;-67
2023/04/19 23:37:11;;;;;;;;;;;;;;;19.14;41.74;95552.06;10464065;28;1996;-67
2023/04/19 23:42:12;;;;;;;;;;;;;;;19.14;41.69;95541.53;10470968;28;1952;-67
2023/04/19 23:47:13;;;;;;;;;;;;;;;19.12;41.57;95527.88;10476459;28;1998;-67
2023/04/19 23:52:14;;;;;;;;;;;;;;;19.11;41.43;95521.03;10475893;28;1997;-67
2023/04/19 23:57:15;;;;;;;;;;;;;;;19.11;41.42;95523.66;10454268;28;2103;-67
